Time;durP1;ratioP1;P1;durP2;ratioP2;P2;SDS_P1;SDS_P2;PMS_P1;PMS_P2;Temp;Humidity;BMP_temperature;BMP_pressure;BME280_temperature;BME280_humidity;BME280_pressure;Samples;Min_cycle;Max_cycle;Signal;HPM_P1;HPM_P2
2022/03/22 00:01:51;;;;;;;33.00;21.38;;;;;;;14.35;46.29;102928.81;5030785;28;20124;-66
2022/03/22 00:04:21;;;;;;;29.63;20.83;;;;;;;14.34;46.24;102927.06;4999698;28;20045;-65
2022/03/22 00:06:48;;;;;;;33.22;21.30;;;;;;;14.31;46.41;102929.00;5025806;28;20127;-66
2022/03/22 00:09:15;;;;;;;31.23;21.65;;;;;;;14.29;46.36;102925.50;5017706;28;20068;-65
2022/03/22 00:11:42;;;;;;;32.55;21.08;;;;;;;14.25;46.34;102928.44;4998022;28;20042;-65
2022/03/22 00:14:12;;;;;;;32.72;22.67;;;;;;;14.20;46.41;102923.28;5022185;28;20442;-66
2022/03/22 00:16:43;;;;;;;34.40;22.95;;;;;;;14.13;46.51;102931.81;5018001;28;20140;-66
2022/03/22 00:19:30;;;;;;;36.13;22.60;;;;;;;14.06;46.61;102938.44;5035271;28;20410;-66
2022/03/22 00:21:57;;;;;;;35.83;22.50;;;;;;;13.99;46.54;102929.78;5034768;28;20054;-66
2022/03/22 00:24:28;;;;;;;32.13;22.20;;;;;;;13.93;46.71;102930.97;5035145;28;20053;-66
2022/03/22 00:26:54;;;;;;;33.97;22.75;;;;;;;13.90;46.56;102938.38;5034733;28;20061;-65
2022/03/22 00:29:21;;;;;;;30.48;21.35;;;;;;;13.87;46.56;102931.31;5035038;28;20033;-65
2022/03/22 00:31:48;;;;;;;29.83;21.48;;;;;;;13.84;46.62;102934.16;5017276;28;20037;-66
2022/03/22 00:34:20;;;;;;;32.88;21.38;;;;;;;13.81;46.82;102938.84;5017576;28;20499;-65
2022/03/22 00:36:49;;;;;;;31.58;21.75;;;;;;;13.79;46.76;102940.75;5034799;28;20084;-65
2022/03/22 00:39:18;;;;;;;28.58;19.77;;;;;;;13.78;46.95;102950.69;5017178;28;20048;-65
2022/03/22 00:41:45;;;;;;;30.70;20.65;;;;;;;13.79;46.76;102944.34;5034735;28;20503;-65
2022/03/22 00:44:14;;;;;;;29.95;19.75;;;;;;;13.82;46.72;102943.31;5034824;28;20041;-65
2022/03/22 00:46:40;;;;;;;26.55;20.38;;;;;;;13.85;46.70;102946.72;5034513;28;20049;-65
2022/03/22 00:49:07;;;;;;;26.80;19.65;;;;;;;13.89;46.73;102951.00;5034304;28;20052;-65
2022/03/22 00:51:35;;;;;;;30.23;20.92;;;;;;;13.90;46.81;102950.06;5034408;28;20041;-65
2022/03/22 00:54:08;;;;;;;27.92;19.45;;;;;;;13.91;46.82;102953.63;5034312;28;20483;-65
2022/03/22 00:56:35;;;;;;;31.70;19.95;;;;;;;13.91;46.79;102950.94;5034124;28;20128;-66
2022/03/22 01:01:48;;;;;;;30.10;21.30;;;;;;;13.88;46.73;102946.56;5021492;28;20041;-64
2022/03/22 01:04:24;;;;;;;28.77;20.60;;;;;;;13.87;46.77;102947.50;5034328;28;20037;-65
2022/03/22 01:06:50;;;;;;;32.25;19.42;;;;;;;13.87;46.80;102944.81;5033622;28;20053;-65
2022/03/22 01:09:17;;;;;;;30.67;20.00;;;;;;;13.88;46.71;102945.69;5033146;28;20492;-65
2022/03/22 01:11:44;;;;;;;27.90;19.17;;;;;;;13.88;46.58;102949.25;5034558;28;20045;-64
2022/03/22 01:14:15;;;;;;;27.85;19.50;;;;;;;13.91;46.75;102951.81;5034534;28;20121;-65
2022/03/22 01:16:42;;;;;;;30.52;19.98;;;;;;;13.90;46.78;102947.34;5034011;28;20073;-65
2022/03/22 01:19:09;;;;;;;28.77;19.40;;;;;;;13.90;46.71;102951.88;5033788;28;20103;-65
2022/03/22 01:21:37;;;;;;;25.80;18.65;;;;;;;13.88;46.49;102943.84;5033490;28;20041;-66
2022/03/22 01:24:07;;;;;;;25.88;19.27;;;;;;;13.90;46.48;102954.59;5033464;28;20049;-65
2022/03/22 01:26:34;;;;;;;25.88;18.02;;;;;;;13.90;46.51;102950.06;5015810;28;20385;-66
2022/03/22 01:29:00;;;;;;;29.60;18.25;;;;;;;13.90;46.44;102955.47;5033880;28;20050;-65
2022/03/22 01:31:27;;;;;;;29.30;19.02;;;;;;;13.88;46.42;102954.66;5033953;28;20038;-65
2022/03/22 01:33:58;;;;;;;31.63;19.35;;;;;;;13.88;46.55;102956.50;5033926;28;20044;-64
2022/03/22 01:36:25;;;;;;;24.02;18.42;;;;;;;13.86;46.42;102950.28;5033856;28;20095;-65
2022/03/22 01:38:52;;;;;;;26.77;18.58;;;;;;;13.82;46.65;102946.88;5015689;28;20057;-65
2022/03/22 01:41:19;;;;;;;25.15;19.38;;;;;;;13.79;46.48;102951.56;5033453;28;20045;-65
2022/03/22 01:43:49;;;;;;;29.25;20.02;;;;;;;13.75;46.55;102948.16;5033814;28;20061;-65
2022/03/22 01:46:20;;;;;;;30.90;19.25;;;;;;;13.70;46.57;102942.09;5015416;28;20092;-66
2022/03/22 01:48:48;;;;;;;25.10;18.23;;;;;;;13.67;46.40;102947.66;5033581;28;20396;-65
2022/03/22 01:51:15;;;;;;;26.27;18.98;;;;;;;13.64;46.55;102947.81;5033276;28;20049;-65
2022/03/22 01:53:42;;;;;;;29.50;19.15;;;;;;;13.62;46.52;102947.03;5015738;28;20053;-65
2022/03/22 01:56:17;;;;;;;26.38;18.65;;;;;;;13.63;46.51;102952.34;5033147;28;20522;-65
2022/03/22 01:58:44;;;;;;;28.48;19.48;;;;;;;13.62;46.44;102945.19;5033231;28;20144;-65
2022/03/22 02:06:45;;;;;;;27.35;18.67;;;;;;;13.53;46.48;102940.25;5032797;28;20079;-66
2022/03/22 02:09:12;;;;;;;24.20;17.42;;;;;;;13.49;46.53;102938.66;5032092;28;20041;-65
2022/03/22 02:11:39;;;;;;;26.40;19.13;;;;;;;13.47;46.60;102937.88;5032495;28;20551;-66
2022/03/22 02:14:10;;;;;;;29.52;18.92;;;;;;;13.45;46.66;102938.88;5015560;28;20050;-65
2022/03/22 02:16:37;;;;;;;25.95;18.52;;;;;;;13.43;46.64;102933.56;5032748;28;20294;-65
2022/03/22 02:19:08;;;;;;;30.45;18.70;;;;;;;13.42;46.51;102933.66;5032676;28;20128;-66
2022/03/22 02:21:38;;;;;;;28.38;19.52;;;;;;;13.40;46.71;102933.72;5015028;28;20048;-66
2022/03/22 02:24:09;;;;;;;25.98;18.13;;;;;;;13.37;46.75;102933.84;5032686;28;20065;-65
2022/03/22 02:26:39;;;;;;;28.67;18.88;;;;;;;13.37;46.64;102928.44;5032335;28;20124;-65
2022/03/22 02:29:06;;;;;;;28.30;19.05;;;;;;;13.35;46.59;102931.22;5031603;28;20038;-65
2022/03/22 02:31:33;;;;;;;24.55;18.38;;;;;;;13.36;46.63;102930.28;5014875;28;20049;-65
2022/03/22 02:34:03;;;;;;;25.23;17.83;;;;;;;13.35;46.68;102925.81;5033071;28;20041;-65
2022/03/22 02:36:30;;;;;;;26.95;17.67;;;;;;;13.34;46.61;102924.06;5031822;28;20058;-65
2022/03/22 02:38:57;;;;;;;25.05;17.60;;;;;;;13.34;46.71;102931.28;5031985;28;20519;-65
2022/03/22 02:41:27;;;;;;;25.02;17.17;;;;;;;13.35;46.66;102925.81;4998073;28;20080;-65
2022/03/22 02:43:58;;;;;;;27.83;18.45;;;;;;;13.38;46.68;102923.91;5012699;28;20038;-65
2022/03/22 02:46:25;;;;;;;27.95;18.98;;;;;;;13.40;46.82;102927.44;5011061;28;20433;-66
2022/03/22 02:48:52;;;;;;;25.65;17.33;;;;;;;13.41;46.64;102926.50;5012438;28;20045;-65
2022/03/22 02:51:18;;;;;;;26.33;17.38;;;;;;;13.40;46.59;102922.06;5012143;28;20084;-66
2022/03/22 02:53:48;;;;;;;23.25;16.45;;;;;;;13.35;46.54;102925.81;5013898;28;20503;-65
2022/03/22 02:56:15;;;;;;;26.27;17.17;;;;;;;13.31;46.56;102928.75;5031793;28;20092;-65
2022/03/22 02:58:41;;;;;;;30.30;17.90;;;;;;;13.26;46.47;102942.47;5032159;28;20045;-65
2022/03/22 03:01:09;;;;;;;23.73;17.17;;;;;;;13.20;46.23;102934.69;5014122;28;20048;-65
2022/03/22 03:03:36;;;;;;;24.73;17.90;;;;;;;13.14;46.32;102940.34;5032075;28;20041;-65
2022/03/22 03:06:07;;;;;;;27.80;18.67;;;;;;;13.07;46.50;102940.72;5032071;28;20041;-65
2022/03/22 03:08:34;;;;;;;24.75;18.17;;;;;;;13.01;46.41;102945.44;5031885;28;20427;-65
2022/03/22 03:11:01;;;;;;;26.25;18.80;;;;;;;13.00;46.60;102938.31;5014093;28;20132;-65
2022/03/22 03:14:38;;;;;;;24.45;18.52;;;;;;;12.98;46.75;102940.22;5014629;28;20042;-65
2022/03/22 03:16:18;;;;;;;28.55;17.88;;;;;;;12.95;46.58;102944.88;5022233;28;20057;-64
2022/03/22 03:18:45;;;;;;;27.95;18.67;;;;;;;12.92;46.55;102948.59;5031861;28;20134;-64
2022/03/22 03:21:13;;;;;;;26.63;19.08;;;;;;;12.88;46.72;102940.72;5014096;28;20041;-64
2022/03/22 03:23:40;;;;;;;24.58;17.75;;;;;;;12.88;46.85;102940.72;5031928;28;20041;-64
2022/03/22 03:26:07;;;;;;;26.38;18.83;;;;;;;12.84;46.91;102950.78;5014225;28;20060;-65
2022/03/22 03:28:33;;;;;;;26.45;17.77;;;;;;;12.81;46.96;102940.13;5031792;28;20034;-65
2022/03/22 03:31:00;;;;;;;30.63;19.05;;;;;;;12.80;46.94;102948.28;5014238;28;20037;-65
2022/03/22 03:33:27;;;;;;;32.40;19.95;;;;;;;12.79;46.91;102943.84;4998702;28;20110;-65
2022/03/22 03:35:54;;;;;;;24.85;17.73;;;;;;;12.77;46.85;102957.41;5012280;28;20420;-65
2022/03/22 03:38:20;;;;;;;27.60;18.00;;;;;;;12.77;47.04;102948.44;4994849;28;20042;-66
2022/03/22 03:43:32;;;;;;;28.27;17.58;;;;;;;12.76;46.69;102960.16;5026330;28;20500;-65
2022/03/22 03:48:45;;;;;;;24.60;18.52;;;;;;;12.73;46.84;102955.78;5035043;28;20136;-66
2022/03/22 03:51:12;;;;;;;26.92;18.40;;;;;;;12.72;47.18;102954.03;5017945;28;20483;-65
2022/03/22 03:53:40;;;;;;;26.00;17.02;;;;;;;12.73;46.99;102959.38;4983533;28;20409;-65
2022/03/22 03:56:08;;;;;;;25.58;16.55;;;;;;;12.72;46.94;102959.44;5026714;28;20038;-66
2022/03/22 03:58:36;;;;;;;24.67;17.35;;;;;;;12.70;46.89;102961.31;5035311;28;20067;-65
2022/03/22 04:01:03;;;;;;;26.08;17.67;;;;;;;12.67;46.90;102965.03;5019966;28;20041;-65
2022/03/22 04:03:30;;;;;;;27.30;18.60;;;;;;;12.66;46.81;102968.69;5031629;28;20076;-66
2022/03/22 04:05:59;;;;;;;27.25;18.25;;;;;;;12.65;46.98;102968.75;5028016;28;20041;-65
2022/03/22 04:08:26;;;;;;;26.88;18.08;;;;;;;12.60;46.83;102971.63;5015153;28;20081;-65
2022/03/22 04:10:53;;;;;;;28.02;18.40;;;;;;;12.51;46.81;102973.88;5015422;28;20058;-65
2022/03/22 04:13:19;;;;;;;24.83;18.42;;;;;;;12.41;47.00;102979.69;5016070;28;20050;-65
2022/03/22 04:15:50;;;;;;;25.77;17.77;;;;;;;12.36;46.89;102976.31;5028555;28;20030;-65
2022/03/22 04:18:16;;;;;;;25.77;17.67;;;;;;;12.34;47.06;102977.31;5024359;28;20407;-65
2022/03/22 04:20:43;;;;;;;27.48;18.48;;;;;;;12.33;47.03;102973.75;5035158;28;20041;-65
2022/03/22 04:23:10;;;;;;;26.63;18.45;;;;;;;12.31;47.06;102978.34;5004724;28;20049;-64
2022/03/22 04:25:37;;;;;;;25.77;18.20;;;;;;;12.30;47.11;102981.09;5026245;28;20411;-65
2022/03/22 04:33:36;;;;;;;;;;;;;;;12.10;47.22;102976.59;5015670;28;20041;-66
2022/03/22 04:36:12;;;;;;;33.78;18.05;;;;;;;12.12;47.00;102979.22;5034123;28;19975;-65
2022/03/22 04:38:39;;;;;;;28.50;18.67;;;;;;;12.10;47.04;102984.66;5034254;28;20045;-64
2022/03/22 04:41:08;;;;;;;28.55;18.75;;;;;;;12.09;47.34;102985.63;5034757;28;20049;-65
2022/03/22 04:43:35;;;;;;;26.67;17.60;;;;;;;12.04;47.22;102982.25;5034472;28;20487;-66
2022/03/22 04:46:03;;;;;;;30.73;18.75;;;;;;;11.97;47.23;102989.72;5034420;28;20041;-65
2022/03/22 04:48:30;;;;;;;26.30;18.65;;;;;;;11.91;47.27;102986.41;5034428;28;20049;-65
2022/03/22 04:59:19;;;;;;;25.73;18.75;;;;;;;11.54;47.55;102982.50;5034411;28;20067;-64
2022/03/22 05:01:46;;;;;;;25.17;18.80;;;;;;;11.51;47.55;102985.31;5016317;28;20102;-64
2022/03/22 05:04:17;;;;;;;30.05;19.70;;;;;;;11.52;47.68;102983.50;5034342;28;20037;-64
2022/03/22 05:06:45;;;;;;;28.30;19.48;;;;;;;11.54;47.69;102985.19;5033729;28;20064;-65
2022/03/22 05:09:12;;;;;;;28.55;19.27;;;;;;;11.56;47.85;102994.06;5016368;28;20056;-64
2022/03/22 05:11:39;;;;;;;30.88;20.10;;;;;;;11.61;47.89;102999.28;5034181;28;20046;-65
2022/03/22 05:14:11;;;;;;;30.20;20.88;;;;;;;11.62;47.88;103001.91;5033869;28;20124;-64
2022/03/22 05:16:39;;;;;;;30.95;19.95;;;;;;;11.64;48.18;102999.16;5033893;28;20092;-64
2022/03/22 05:19:07;;;;;;;26.38;19.35;;;;;;;11.63;47.96;103000.09;5033797;28;20052;-65
2022/03/22 05:21:33;;;;;;;33.60;20.70;;;;;;;11.60;47.91;103001.09;5034198;28;20124;-65
2022/03/22 05:24:05;;;;;;;27.98;20.20;;;;;;;11.58;47.92;103004.78;5033733;28;20504;-64
2022/03/22 05:26:32;;;;;;;31.98;20.58;;;;;;;11.55;48.01;103010.28;5033557;28;20514;-65
2022/03/22 05:28:58;;;;;;;31.10;19.27;;;;;;;11.54;48.23;103005.84;5033526;28;20044;-66
2022/03/22 05:31:25;;;;;;;28.20;19.90;;;;;;;11.50;48.10;103015.84;5033671;28;20045;-65
2022/03/22 05:33:54;;;;;;;27.20;19.92;;;;;;;11.44;47.88;103014.28;5033724;28;20492;-65
2022/03/22 05:36:22;;;;;;;28.45;19.92;;;;;;;11.36;48.04;103018.22;5014713;28;20490;-65
2022/03/22 05:38:49;;;;;;;30.30;20.58;;;;;;;11.31;48.10;103026.47;5032521;28;20404;-65
2022/03/22 05:41:15;;;;;;;31.92;21.27;;;;;;;11.24;48.00;103019.59;5032302;28;20041;-65
2022/03/22 05:43:42;;;;;;;31.20;20.65;;;;;;;11.21;48.20;103019.72;5032684;28;20056;-65
2022/03/22 05:46:16;;;;;;;28.95;19.48;;;;;;;11.18;48.24;103018.94;5032236;28;20096;-66
2022/03/22 05:48:48;;;;;;;32.28;20.27;;;;;;;11.14;47.99;103028.91;5032640;28;20072;-65
2022/03/22 05:51:19;;;;;;;32.42;21.08;;;;;;;11.08;48.31;103026.47;5032239;28;20045;-66
2022/03/22 05:53:50;;;;;;;30.60;20.80;;;;;;;11.01;48.31;103028.50;5031977;28;20064;-64
2022/03/22 05:56:17;;;;;;;33.35;20.25;;;;;;;10.95;48.21;103027.88;5014480;28;20052;-65
2022/03/22 05:58:43;;;;;;;31.60;21.35;;;;;;;10.87;48.19;103027.28;5032355;28;20037;-65
2022/03/22 06:01:10;;;;;;;29.25;20.45;;;;;;;10.77;48.41;103026.75;5014408;28;20095;-64
2022/03/22 06:03:37;;;;;;;29.75;21.10;;;;;;;10.69;48.44;103029.72;5013402;28;20056;-65
2022/03/22 06:08:51;;;;;;;32.28;20.90;;;;;;;10.64;48.59;103033.50;5099647;22;20040;-65
2022/03/22 06:11:18;;;;;;;30.55;20.63;;;;;;;10.65;48.69;103033.47;5059361;28;20097;-65
2022/03/22 06:13:45;;;;;;;30.25;20.67;;;;;;;10.68;48.86;103027.97;5093305;28;20052;-65
2022/03/22 06:16:12;;;;;;;29.58;20.83;;;;;;;10.69;49.06;103026.16;5094022;28;20047;-65
2022/03/22 06:18:39;;;;;;;31.50;22.02;;;;;;;10.66;48.91;103031.66;5090061;28;20049;-64
2022/03/22 06:21:06;;;;;;;30.58;21.17;;;;;;;10.59;48.91;103033.69;5073419;28;20082;-64
2022/03/22 06:23:33;;;;;;;33.20;21.15;;;;;;;10.55;48.99;103040.09;5086694;28;20047;-65
2022/03/22 06:26:01;;;;;;;32.03;21.73;;;;;;;10.53;49.14;103043.78;5075333;28;20107;-65
2022/03/22 06:28:28;;;;;;;30.17;21.60;;;;;;;10.52;49.31;103040.22;5073781;28;20123;-65
2022/03/22 06:30:55;;;;;;;34.13;22.58;;;;;;;10.54;49.23;103043.72;5055506;28;20459;-65
2022/03/22 06:33:24;;;;;;;31.17;22.65;;;;;;;10.59;49.34;103038.19;5073364;28;20063;-65
2022/03/22 06:35:50;;;;;;;31.17;21.70;;;;;;;10.64;49.39;103041.56;5073544;28;20041;-65
2022/03/22 06:38:18;;;;;;;32.35;22.25;;;;;;;10.73;49.57;103046.63;5084333;28;20048;-65
2022/03/22 06:40:46;;;;;;;34.55;22.70;;;;;;;10.81;49.43;103044.53;5078342;28;20064;-64
2022/03/22 06:43:16;;;;;;;30.40;21.95;;;;;;;10.90;49.56;103044.19;5073443;28;20510;-64
2022/03/22 06:45:45;;;;;;;33.75;23.10;;;;;;;11.01;49.56;103054.53;5070474;28;20051;-64
2022/03/22 06:48:12;;;;;;;33.20;23.42;;;;;;;11.10;49.57;103059.56;5093173;28;20503;-65
2022/03/22 06:50:39;;;;;;;35.17;23.35;;;;;;;11.19;49.92;103052.97;5074432;28;20049;-65
2022/03/22 06:53:07;;;;;;;37.85;23.55;;;;;;;11.26;49.69;103058.06;5073333;28;20063;-65
2022/03/22 06:55:37;;;;;;;32.47;23.17;;;;;;;11.35;49.68;103055.00;5059981;28;20040;-66
2022/03/22 06:58:06;;;;;;;37.92;23.50;;;;;;;11.44;49.65;103051.09;5074704;28;20057;-66
2022/03/22 07:00:33;;;;;;;34.97;23.95;;;;;;;11.54;49.63;103055.16;5075077;28;20063;-66
2022/03/22 07:03:02;;;;;;;33.35;23.98;;;;;;;11.64;49.77;103063.75;5055134;28;20044;-66
2022/03/22 07:05:30;;;;;;;34.75;23.42;;;;;;;11.74;49.67;103062.44;5073070;28;20043;-65
2022/03/22 07:07:56;;;;;;;36.17;24.45;;;;;;;11.84;49.63;103063.84;5072832;28;20123;-65
2022/03/22 07:10:24;;;;;;;38.45;25.23;;;;;;;11.96;49.70;103065.19;5069759;28;20407;-65
2022/03/22 07:12:53;;;;;;;38.13;23.90;;;;;;;12.08;49.83;103070.94;5091566;28;20059;-65
2022/03/22 07:15:35;;;;;;;37.10;24.17;;;;;;;12.24;49.75;103064.88;5073949;28;20051;-65
2022/03/22 07:18:05;;;;;;;38.67;23.75;;;;;;;12.40;49.71;103071.38;5092086;28;20024;-66
2022/03/22 07:20:33;;;;;;;32.97;23.70;;;;;;;12.56;49.59;103064.38;5062684;28;20123;-65
2022/03/22 07:23:00;;;;;;;33.53;22.77;;;;;;;12.73;49.71;103067.22;5076889;28;20060;-65
2022/03/22 07:25:28;;;;;;;34.85;23.00;;;;;;;12.90;49.50;103065.56;5085000;28;20489;-65
2022/03/22 07:27:57;;;;;;;33.85;22.77;;;;;;;13.10;49.24;103073.63;5066069;28;20044;-66
2022/03/22 07:30:24;;;;;;;37.45;22.90;;;;;;;13.27;49.19;103073.75;5077164;28;20126;-65
2022/03/22 07:32:51;;;;;;;31.13;21.50;;;;;;;13.42;48.70;103072.19;5093501;28;20051;-65
2022/03/22 07:35:19;;;;;;;33.17;22.33;;;;;;;13.52;48.46;103068.09;5078635;28;20070;-66
2022/03/22 07:37:48;;;;;;;30.67;21.65;;;;;;;13.64;48.49;103072.88;5078431;28;20040;-66
2022/03/22 07:40:16;;;;;;;31.15;20.50;;;;;;;13.79;48.09;103070.38;5092235;28;20079;-65
2022/03/22 07:42:44;;;;;;;32.20;20.10;;;;;;;13.91;47.97;103073.34;5059061;28;20379;-63
2022/03/22 07:45:11;;;;;;;28.38;20.23;;;;;;;14.06;47.40;103071.72;5064218;28;20048;-65
2022/03/22 07:47:41;;;;;;;26.10;19.33;;;;;;;14.22;47.37;103070.00;5050923;28;20498;-63
2022/03/22 07:53:06;;;;;;;32.45;20.67;;;;;;;14.59;46.98;103066.31;5096548;28;20040;-65
2022/03/22 07:55:36;;;;;;;27.10;20.27;;;;;;;14.79;46.54;103072.47;5073922;28;20045;-64
2022/03/22 07:58:06;;;;;;;26.10;19.70;;;;;;;14.92;46.46;103069.06;5076141;28;20037;-64
2022/03/22 08:00:35;;;;;;;28.48;20.35;;;;;;;15.06;46.00;103071.03;5081698;28;20493;-66
2022/03/22 08:03:03;;;;;;;28.92;19.75;;;;;;;15.19;45.87;103063.97;5096395;28;20493;-64
2022/03/22 08:05:32;;;;;;;31.30;21.15;;;;;;;15.32;45.75;103075.00;5081890;28;20044;-65
2022/03/22 08:08:00;;;;;;;32.90;21.25;;;;;;;15.43;45.65;103077.09;5068925;28;20036;-65
2022/03/22 08:10:47;;;;;;;30.85;19.55;;;;;;;15.56;45.04;103078.16;5076921;28;20049;-65
2022/03/22 08:13:14;;;;;;;30.05;19.90;;;;;;;15.69;44.91;103076.56;5079226;28;20045;-65
2022/03/22 08:15:41;;;;;;;30.50;20.23;;;;;;;15.83;44.94;103068.50;5076169;28;20051;-65
2022/03/22 08:18:09;;;;;;;28.33;20.83;;;;;;;15.98;44.67;103079.41;5075859;28;20119;-65
2022/03/22 08:20:36;;;;;;;34.33;21.60;;;;;;;16.14;44.38;103081.13;5058502;28;20048;-65
2022/03/22 08:23:07;;;;;;;31.75;19.80;;;;;;;16.35;44.34;103079.00;5075681;28;20072;-65
2022/03/22 08:25:36;;;;;;;28.90;21.35;;;;;;;16.59;44.44;103086.63;5058484;28;20481;-65
2022/03/22 08:28:05;;;;;;;30.13;21.48;;;;;;;16.75;44.03;103084.75;5057369;28;20037;-64
2022/03/22 08:30:33;;;;;;;24.05;19.08;;;;;;;16.88;43.58;103083.03;5090736;28;20040;-65
2022/03/22 08:33:09;;;;;;;26.45;19.33;;;;;;;17.00;43.40;103084.09;5077839;28;20439;-66
2022/03/22 08:35:41;;;;;;;28.55;20.55;;;;;;;17.13;42.94;103085.97;5095882;28;20039;-65
2022/03/22 08:38:10;;;;;;;30.08;20.33;;;;;;;17.27;43.01;103085.09;5077878;28;20037;-66
2022/03/22 08:40:37;;;;;;;35.72;21.25;;;;;;;17.43;42.77;103085.00;5079765;28;20036;-65
2022/03/22 08:43:07;;;;;;;29.98;20.05;;;;;;;17.56;42.64;103085.94;5075634;28;20044;-65
2022/03/22 08:45:35;;;;;;;31.63;19.13;;;;;;;17.70;42.10;103077.78;5075475;28;20048;-65
2022/03/22 08:48:08;;;;;;;35.45;20.58;;;;;;;17.84;41.84;103079.63;5082002;28;20024;-64
2022/03/22 08:50:39;;;;;;;26.02;19.75;;;;;;;18.01;41.75;103075.78;5091449;28;20042;-65
2022/03/22 08:53:07;;;;;;;32.50;20.15;;;;;;;18.14;41.83;103075.81;5078219;28;20052;-64
2022/03/22 08:55:42;;;;;;;33.50;19.85;;;;;;;18.34;41.43;103073.47;5095385;28;20048;-64
2022/03/22 08:58:13;;;;;;;37.83;21.40;;;;;;;18.49;41.38;103071.53;5093237;28;20474;-65
2022/03/22 09:00:40;;;;;;;28.25;20.08;;;;;;;18.66;40.72;103079.47;5093755;28;20032;-64
2022/03/22 09:03:11;;;;;;;28.13;19.90;;;;;;;18.81;40.51;103076.66;5075761;28;20082;-64
2022/03/22 09:08:23;;;;;;;24.88;19.00;;;;;;;19.11;40.24;103073.59;5075427;28;20047;-64
2022/03/22 09:10:51;;;;;;;26.63;20.15;;;;;;;19.25;40.10;103078.91;5074923;28;20063;-65
2022/03/22 09:13:18;;;;;;;34.50;20.20;;;;;;;19.39;39.85;103067.03;5074900;28;20037;-65
2022/03/22 09:15:47;;;;;;;27.42;19.42;;;;;;;19.54;39.56;103074.97;5076251;28;20115;-64
2022/03/22 09:18:13;;;;;;;34.78;20.92;;;;;;;19.69;39.35;103067.53;5058701;28;20036;-64
2022/03/22 09:20:42;;;;;;;28.40;19.95;;;;;;;19.83;39.03;103064.63;5056860;28;20079;-66
2022/03/22 09:23:09;;;;;;;27.27;19.45;;;;;;;19.94;38.66;103063.81;5074646;28;20127;-65
2022/03/22 09:25:37;;;;;;;29.83;20.20;;;;;;;20.07;38.61;103066.53;5075010;28;20056;-67
2022/03/22 09:28:05;;;;;;;28.75;19.55;;;;;;;20.21;38.60;103061.75;5058044;28;20517;-66
2022/03/22 09:30:33;;;;;;;30.05;18.75;;;;;;;20.32;38.19;103058.19;5079481;28;20041;-66
2022/03/22 09:33:02;;;;;;;30.95;19.02;;;;;;;20.44;37.81;103061.84;5074727;28;20044;-66
2022/03/22 09:35:29;;;;;;;27.42;18.27;;;;;;;20.55;37.72;103059.16;5056930;28;20043;-66
2022/03/22 09:37:56;;;;;;;28.02;18.98;;;;;;;20.66;37.33;103064.63;5075303;28;20113;-66
2022/03/22 09:40:24;;;;;;;27.80;18.70;;;;;;;20.76;37.12;103056.59;5057039;28;20136;-66
2022/03/22 09:42:51;;;;;;;26.08;19.48;;;;;;;20.86;36.49;103061.22;5076822;28;20093;-67
2022/03/22 09:45:24;;;;;;;27.63;18.58;;;;;;;20.96;36.42;103057.75;5088119;28;20047;-66
2022/03/22 09:47:51;;;;;;;30.58;19.83;;;;;;;21.08;36.34;103056.75;5074939;28;20055;-66
2022/03/22 09:50:20;;;;;;;27.05;19.15;;;;;;;21.20;36.02;103058.50;5075502;28;20080;-68
2022/03/22 09:52:47;;;;;;;26.35;18.65;;;;;;;21.34;35.78;103051.94;5093763;28;20441;-68
2022/03/22 09:55:16;;;;;;;23.75;18.08;;;;;;;21.45;35.86;103052.81;5074380;28;20045;-68
2022/03/22 09:57:44;;;;;;;28.92;19.23;;;;;;;21.56;35.63;103049.22;5081585;28;20475;-68
2022/03/22 10:00:14;;;;;;;25.88;18.63;;;;;;;21.67;35.12;103051.06;5079685;28;20047;-68
2022/03/22 10:02:40;;;;;;;23.25;16.35;;;;;;;21.76;34.76;103040.22;5073910;28;20040;-68
2022/03/22 10:05:20;;;;;;;27.42;19.00;;;;;;;21.83;34.58;103041.44;5079239;28;20097;-68
2022/03/22 10:07:55;;;;;;;29.98;18.30;;;;;;;21.93;34.25;103046.13;5055802;28;20041;-67
2022/03/22 10:10:22;;;;;;;26.88;17.65;;;;;;;22.00;33.91;103037.25;5093564;28;20039;-66
2022/03/22 10:12:57;;;;;;;28.90;17.23;;;;;;;22.09;33.69;103039.25;5079775;28;20436;-66
2022/03/22 10:15:37;;;;;;;26.30;17.83;;;;;;;22.15;33.40;103040.59;5064428;28;20059;-67
2022/03/22 10:18:07;;;;;;;25.38;16.63;;;;;;;22.23;33.54;103034.44;5093849;28;20059;-67
2022/03/22 10:20:36;;;;;;;24.23;17.17;;;;;;;22.31;33.38;103035.56;5089068;28;20405;-67
2022/03/22 10:23:05;;;;;;;25.95;16.90;;;;;;;22.41;33.20;103030.16;5088218;28;20044;-66
2022/03/22 10:25:33;;;;;;;25.52;17.25;;;;;;;22.48;32.71;103026.75;5073681;28;20405;-67
2022/03/22 10:28:02;;;;;;;31.25;18.63;;;;;;;22.56;32.62;103026.06;5073835;28;20036;-67
2022/03/22 10:30:30;;;;;;;28.30;17.98;;;;;;;22.66;32.39;103026.13;5092837;28;20128;-67
2022/03/22 10:32:57;;;;;;;27.38;18.15;;;;;;;22.75;32.16;103028.94;5066381;28;20041;-67
2022/03/22 10:35:31;;;;;;;27.17;17.65;;;;;;;22.85;32.00;103025.41;5038889;28;20490;-67
2022/03/22 10:38:03;;;;;;;23.23;17.25;;;;;;;22.97;31.72;103021.56;5073749;28;20044;-68
2022/03/22 10:40:40;;;;;;;27.50;17.55;;;;;;;23.05;31.79;103021.78;5092929;28;20374;-67
2022/03/22 10:43:11;;;;;;;24.55;16.88;;;;;;;23.11;31.09;103023.97;5091829;28;20033;-67
2022/03/22 10:45:49;;;;;;;25.45;17.73;;;;;;;23.15;31.05;103014.47;5093389;28;20044;-67
2022/03/22 10:48:26;;;;;;;23.00;17.30;;;;;;;23.25;31.09;103018.09;5091278;28;20063;-67
2022/03/22 10:50:55;;;;;;;24.48;17.45;;;;;;;23.37;31.18;103016.97;5086780;28;20119;-67
2022/03/22 10:53:26;;;;;;;24.30;17.20;;;;;;;23.48;30.90;103020.63;5093356;28;20492;-67
2022/03/22 10:55:58;;;;;;;24.83;17.42;;;;;;;23.55;30.77;103010.84;5091691;28;20043;-67
2022/03/22 10:58:26;;;;;;;27.13;17.27;;;;;;;23.63;30.58;103016.50;5087527;28;20036;-68
2022/03/22 11:00:54;;;;;;;24.30;17.13;;;;;;;23.74;30.71;103014.47;5083910;28;20041;-67
2022/03/22 11:03:24;;;;;;;28.80;17.25;;;;;;;23.88;30.47;103015.09;5074072;28;20044;-68
2022/03/22 11:05:53;;;;;;;30.20;18.05;;;;;;;23.99;30.17;103012.22;5072989;28;20063;-68
2022/03/22 11:08:22;;;;;;;38.50;18.02;;;;;;;24.09;30.27;103013.94;5072543;28;20387;-67
2022/03/22 11:10:51;;;;;;;28.45;18.35;;;;;;;24.21;29.79;103011.91;5080558;28;20032;-67
2022/03/22 11:13:17;;;;;;;24.30;17.38;;;;;;;24.31;30.14;103007.31;5081157;28;20047;-67
2022/03/22 11:15:46;;;;;;;29.27;17.13;;;;;;;24.43;29.61;103004.41;5072819;28;20049;-68
2022/03/22 11:18:15;;;;;;;26.08;17.67;;;;;;;24.52;29.57;103004.38;5072339;28;20505;-66
2022/03/22 11:20:49;;;;;;;26.70;17.95;;;;;;;24.59;29.37;103002.78;5072748;28;20486;-67
2022/03/22 11:23:21;;;;;;;27.17;17.02;;;;;;;24.69;29.36;103000.88;5076564;28;20040;-66
2022/03/22 11:25:47;;;;;;;28.20;16.83;;;;;;;24.83;29.02;102996.78;5085269;28;20132;-67
2022/03/22 11:28:18;;;;;;;26.75;16.83;;;;;;;24.94;28.87;102996.59;5084858;28;20505;-66
2022/03/22 11:30:46;;;;;;;22.58;16.08;;;;;;;25.06;28.71;102991.81;5085644;28;20048;-67
2022/03/22 11:36:13;;;;;;;24.40;15.48;;;;;;;25.20;28.41;102983.03;5091804;28;20036;-67
2022/03/22 11:38:41;;;;;;;28.60;16.17;;;;;;;25.27;28.04;102986.06;5092451;28;20414;-67
2022/03/22 11:44:16;;;;;;;26.98;14.88;;;;;;;25.41;27.76;102984.69;5073873;28;20519;-67
2022/03/22 11:46:44;;;;;;;23.48;15.63;;;;;;;25.50;27.51;102979.13;5072638;28;20055;-67
2022/03/22 11:49:17;;;;;;;30.42;16.52;;;;;;;25.57;27.47;102982.97;5072831;28;20098;-67
2022/03/22 11:52:11;;;;;;;22.45;16.67;;;;;;;25.61;27.53;102978.03;5072714;28;20119;-66
2022/03/22 11:54:38;;;;;;;21.88;15.25;;;;;;;25.70;27.37;102979.88;5046773;28;20045;-66
2022/03/22 11:57:07;;;;;;;21.83;15.20;;;;;;;25.75;27.19;102974.75;5075441;28;20040;-66
2022/03/22 11:59:41;;;;;;;22.08;15.30;;;;;;;25.83;27.14;102980.34;5092584;28;20045;-66